createdAt,value
2023-03-06T00:03:47.994Z,1.00
2023-03-06T00:08:50.611Z,1.06
2023-03-06T00:13:54.452Z,1.11
2023-03-06T00:18:56.928Z,1.20
2023-03-06T00:23:59.429Z,1.21
2023-03-06T00:29:03.273Z,1.28
2023-03-06T00:34:06.012Z,1.35
2023-03-06T00:39:08.644Z,1.38
2023-03-06T00:44:12.480Z,1.31
2023-03-06T00:49:14.982Z,1.26
2023-03-06T00:54:17.506Z,1.20
2023-03-06T00:59:21.482Z,1.22
2023-03-06T01:04:24.300Z,1.30
2023-03-06T01:09:26.849Z,1.34
2023-03-06T01:14:31.389Z,1.38
2023-03-06T01:19:33.875Z,1.41
2023-03-06T01:24:36.358Z,1.44
2023-03-06T01:29:40.176Z,1.46
2023-03-06T01:34:42.700Z,1.48
2023-03-06T01:39:45.337Z,1.45
2023-03-06T01:45:02.903Z,1.43
2023-03-06T01:50:09.796Z,1.40
2023-03-06T01:55:17.119Z,1.36
2023-03-06T02:00:24.127Z,1.31
2023-03-06T02:05:26.671Z,1.27
2023-03-06T02:10:29.242Z,1.22
2023-03-06T02:15:33.214Z,1.15
2023-03-06T02:20:44.274Z,1.08
2023-03-06T02:25:50.521Z,1.01
2023-03-06T02:30:55.827Z,0.93
2023-03-06T02:36:00.202Z,0.82
2023-03-06T02:41:08.035Z,0.74
2023-03-06T02:46:10.616Z,0.65
2023-03-06T02:51:13.087Z,0.59
2023-03-06T02:56:17.157Z,0.53
2023-03-06T03:01:19.777Z,0.47
2023-03-06T03:06:22.336Z,0.41
2023-03-06T03:11:26.148Z,0.33
2023-03-06T03:16:28.683Z,0.26
2023-03-06T03:21:31.202Z,0.23
2023-03-06T03:26:35.054Z,0.17
2023-03-06T03:31:37.739Z,0.14
2023-03-06T03:36:40.320Z,0.13
2023-03-06T03:41:44.249Z,0.11
2023-03-06T03:46:46.805Z,0.01
2023-03-06T03:51:49.343Z,-0.05
2023-03-06T03:56:53.173Z,-0.15
2023-03-06T04:01:56.495Z,-0.19
2023-03-06T04:06:59.146Z,-0.27
2023-03-06T04:12:02.992Z,-0.41
2023-03-06T04:17:05.560Z,-0.51
2023-03-06T04:22:08.040Z,-0.58
2023-03-06T04:27:12.237Z,-0.63
2023-03-06T04:32:14.888Z,-0.69
2023-03-06T04:37:21.143Z,-0.79
2023-03-06T04:42:25.139Z,-0.93
2023-03-06T04:47:27.682Z,-1.11
2023-03-06T04:52:30.230Z,-1.27
2023-03-06T04:57:34.049Z,-1.31
2023-03-06T05:02:37.308Z,-1.42
2023-03-06T05:07:40.673Z,-1.49
2023-03-06T05:12:45.347Z,-1.56
2023-03-06T05:17:48.400Z,-1.67
2023-03-06T05:22:50.906Z,-1.84
2023-03-06T05:27:54.713Z,-1.92
2023-03-06T05:32:57.218Z,-1.96
2023-03-06T05:37:59.765Z,-2.03
2023-03-06T05:43:03.594Z,-2.06
2023-03-06T05:48:07.288Z,-2.03
2023-03-06T05:53:09.816Z,-2.01
2023-03-06T05:58:13.616Z,-2.16
2023-03-06T06:03:16.109Z,-2.21
2023-03-06T06:08:19.024Z,-2.21
2023-03-06T06:13:22.854Z,-2.22
2023-03-06T06:18:25.342Z,-2.20
2023-03-06T06:23:27.849Z,-2.16
2023-03-06T06:28:32.091Z,-2.11
2023-03-06T06:33:35.661Z,-2.09
2023-03-06T06:38:38.159Z,-2.07
2023-03-06T06:43:42.072Z,-2.05
2023-03-06T06:48:44.585Z,-1.99
2023-03-06T06:53:47.085Z,-1.93
2023-03-06T06:58:52.670Z,-1.84
2023-03-06T07:03:55.286Z,-1.79
2023-03-06T07:08:57.904Z,-1.71
2023-03-06T07:14:01.945Z,-1.62
2023-03-06T07:19:04.470Z,-1.53
2023-03-06T07:24:07.204Z,-1.41
2023-03-06T07:29:11.141Z,-1.34
2023-03-06T07:34:15.658Z,-1.22
2023-03-06T07:39:18.172Z,-1.10
2023-03-06T07:44:22.090Z,-0.99
2023-03-06T07:49:24.565Z,-0.91
2023-03-06T07:54:27.082Z,-0.80
2023-03-06T07:59:30.983Z,-0.68
2023-03-06T08:04:34.041Z,-0.53
2023-03-06T08:09:37.029Z,-0.36
2023-03-06T08:14:40.966Z,-0.18
2023-03-06T08:19:43.475Z,0.03
2023-03-06T08:24:45.994Z,0.24
2023-03-06T08:29:49.819Z,0.41
2023-03-06T08:34:52.485Z,0.54
2023-03-06T08:39:54.996Z,0.65
2023-03-06T08:44:58.843Z,0.82
2023-03-06T08:50:01.367Z,0.93
2023-03-06T08:55:04.304Z,1.01
2023-03-06T09:00:10.746Z,1.07
2023-03-06T09:05:13.297Z,1.16
2023-03-06T09:10:17.626Z,1.21
2023-03-06T09:15:22.956Z,1.33
2023-03-06T09:20:25.460Z,1.52
2023-03-06T09:25:28.045Z,1.72
2023-03-06T09:30:31.923Z,1.88
2023-03-06T09:35:34.525Z,2.04
2023-03-06T09:40:50.354Z,2.24
2023-03-06T09:45:55.068Z,2.54
2023-03-06T09:51:03.852Z,2.80
2023-03-06T09:56:14.327Z,2.98
2023-03-06T10:01:22.903Z,2.98
2023-03-06T10:06:30.137Z,3.07
2023-03-06T10:11:39.846Z,3.28
2023-03-06T10:16:43.767Z,3.51
2023-03-06T10:21:58.044Z,3.66
2023-03-06T10:27:10.357Z,3.91
2023-03-06T10:32:32.170Z,4.19
2023-03-06T10:37:39.333Z,4.22
2023-03-06T10:42:41.868Z,4.21
2023-03-06T10:47:46.373Z,4.44
2023-03-06T10:53:00.221Z,4.43
2023-03-06T10:58:19.547Z,4.28
2023-03-06T11:03:25.032Z,4.11
2023-03-06T11:08:27.641Z,4.23
2023-03-06T11:13:32.258Z,4.39
2023-03-06T11:18:41.946Z,4.66
2023-03-06T11:23:47.164Z,4.67
2023-03-06T11:28:56.802Z,4.54
2023-03-06T11:34:06.760Z,4.69
2023-03-06T11:39:23.805Z,4.70
2023-03-06T11:44:37.597Z,4.77
2023-03-06T11:49:45.308Z,4.77
2023-03-06T11:54:54.246Z,4.77
2023-03-06T12:00:22.172Z,4.98
2023-03-06T12:05:37.875Z,5.34
2023-03-06T12:10:51.492Z,5.42
2023-03-06T12:16:18.808Z,5.35
2023-03-06T12:21:32.117Z,5.34
2023-03-06T12:26:49.463Z,5.23
2023-03-06T12:32:02.985Z,5.06
2023-03-06T12:37:17.586Z,5.25
2023-03-06T12:42:34.569Z,5.19
2023-03-06T12:47:42.534Z,5.15
2023-03-06T12:52:47.920Z,5.30
2023-03-06T12:57:50.608Z,5.55
2023-03-06T13:03:07.583Z,5.84
2023-03-06T13:08:34.142Z,5.68
2023-03-06T13:13:44.240Z,5.69
2023-03-06T13:18:54.337Z,5.98
2023-03-06T13:24:05.033Z,5.83
2023-03-06T13:29:48.590Z,5.95
2023-03-06T13:34:51.832Z,6.23
2023-03-06T13:40:26.336Z,6.15
2023-03-06T13:45:35.007Z,6.10
2023-03-06T13:50:41.894Z,6.08
2023-03-06T13:55:59.293Z,5.84
2023-03-06T14:01:23.906Z,5.95
2023-03-06T14:06:50.404Z,5.82
2023-03-06T14:11:58.500Z,5.93
2023-03-06T14:17:04.803Z,6.25
2023-03-06T14:22:14.720Z,6.12
2023-03-06T14:27:20.020Z,5.97
2023-03-06T14:32:23.502Z,5.82
2023-03-06T14:37:26.081Z,5.70
2023-03-06T14:42:30.659Z,5.76
2023-03-06T14:47:34.747Z,5.66
2023-03-06T14:52:37.288Z,5.66
2023-03-06T14:57:41.220Z,5.68
2023-03-06T15:02:45.089Z,5.97
2023-03-06T15:07:47.984Z,6.02
2023-03-06T15:12:51.942Z,6.10
2023-03-06T15:17:54.444Z,6.09
2023-03-06T15:22:56.949Z,5.98
2023-03-06T15:28:02.574Z,5.81
2023-03-06T15:33:23.900Z,5.69
2023-03-06T15:38:34.757Z,5.53
2023-03-06T15:43:40.494Z,5.42
2023-03-06T15:48:52.406Z,5.36
2023-03-06T15:53:59.724Z,5.29
2023-03-06T15:59:17.778Z,5.24
2023-03-06T16:04:20.681Z,5.12
2023-03-06T16:09:23.727Z,5.02
2023-03-06T16:14:27.748Z,4.87
2023-03-06T16:19:30.247Z,4.79
2023-03-06T16:24:32.763Z,4.78
2023-03-06T16:29:36.593Z,4.77
2023-03-06T16:34:39.113Z,4.74
2023-03-06T16:39:41.858Z,4.67
2023-03-06T16:44:45.695Z,4.63
2023-03-06T16:49:48.225Z,4.56
2023-03-06T16:54:50.850Z,4.50
2023-03-06T16:59:54.791Z,4.44
2023-03-06T17:04:57.271Z,4.37
2023-03-06T17:10:00.240Z,4.29
2023-03-06T17:15:05.231Z,4.18
2023-03-06T17:20:09.173Z,4.08
2023-03-06T17:25:12.254Z,3.97
2023-03-06T17:30:16.618Z,3.87
2023-03-06T17:35:19.375Z,3.78
2023-03-06T17:40:21.877Z,3.64
2023-03-06T17:45:25.798Z,3.61
2023-03-06T17:50:28.277Z,3.56
2023-03-06T17:55:30.814Z,3.48
2023-03-06T18:00:34.690Z,3.42
2023-03-06T18:05:37.604Z,3.35
2023-03-06T18:10:40.999Z,3.32
2023-03-06T18:15:44.850Z,3.21
2023-03-06T18:20:47.477Z,3.11
2023-03-06T18:25:50.030Z,3.02
2023-03-06T18:30:53.855Z,2.97
2023-03-06T18:35:56.735Z,2.93
2023-03-06T18:40:59.238Z,2.83
2023-03-06T18:46:03.410Z,2.71
2023-03-06T18:51:06.899Z,2.59
2023-03-06T18:56:10.988Z,2.53
2023-03-06T19:01:15.269Z,2.48
2023-03-06T19:06:18.371Z,2.42
2023-03-06T19:11:20.895Z,2.32
2023-03-06T19:16:26.860Z,2.22
2023-03-06T19:21:29.836Z,2.17
2023-03-06T19:26:32.446Z,2.08
2023-03-06T19:31:36.315Z,2.00
2023-03-06T19:36:40.600Z,1.96
2023-03-06T19:41:43.088Z,1.92
2023-03-06T19:46:46.928Z,1.89
2023-03-06T19:51:49.401Z,1.85
2023-03-06T19:56:51.958Z,1.84
2023-03-06T20:01:55.829Z,1.80
2023-03-06T20:06:59.585Z,1.75
2023-03-06T20:12:02.947Z,1.75
2023-03-06T20:17:07.716Z,1.76
2023-03-06T20:22:10.394Z,1.73
2023-03-06T20:27:13.298Z,1.71
2023-03-06T20:32:17.171Z,1.69
2023-03-06T20:37:19.694Z,1.67
2023-03-06T20:42:22.199Z,1.63
2023-03-06T20:47:26.024Z,1.61
2023-03-06T20:52:28.509Z,1.58
2023-03-06T20:57:31.014Z,1.56
2023-03-06T21:02:34.883Z,1.57
2023-03-06T21:07:37.347Z,1.60
2023-03-06T21:12:39.961Z,1.61
2023-03-06T21:17:43.787Z,1.65
2023-03-06T21:22:46.260Z,1.65
2023-03-06T21:27:48.763Z,1.67
2023-03-06T21:32:54.246Z,1.63
2023-03-06T21:37:57.446Z,1.58
2023-03-06T21:43:00.017Z,1.52
2023-03-06T21:48:04.565Z,1.49
2023-03-06T21:53:07.207Z,1.46
2023-03-06T21:58:09.737Z,1.40
2023-03-06T22:03:13.595Z,1.34
2023-03-06T22:08:16.080Z,1.28
2023-03-06T22:13:19.139Z,1.25
2023-03-06T22:18:23.008Z,1.22
2023-03-06T22:23:25.624Z,1.18
2023-03-06T22:28:28.088Z,1.13
2023-03-06T22:33:31.937Z,1.08
2023-03-06T22:38:34.941Z,1.06
2023-03-06T22:43:37.889Z,1.01
2023-03-06T22:48:42.314Z,0.98
2023-03-06T22:53:45.285Z,0.93
2023-03-06T22:58:48.734Z,0.87
2023-03-06T23:03:54.159Z,0.85
2023-03-06T23:08:58.672Z,0.84
2023-03-06T23:14:01.506Z,0.85
2023-03-06T23:19:06.187Z,0.86
2023-03-06T23:24:08.830Z,0.87
2023-03-06T23:29:11.435Z,0.88
2023-03-06T23:34:15.264Z,0.91
2023-03-06T23:39:17.808Z,0.91
2023-03-06T23:44:20.389Z,0.93
2023-03-06T23:49:24.256Z,0.95
2023-03-06T23:54:26.734Z,0.97
2023-03-06T23:59:29.218Z,0.98
